Terminal Aerodrome Forecast
Issued by NWS Chicago, IL

Home | Current Version | Previous Version | Text Only | Print | Product List | Glossary On
Versions: 1 2 3 4 5 6 7 8 9 10 11 12 13 14 15 16 17 18 19 20 21 22 23 24 25 26 27
172
FTUS43 KLOT 270530
TAFRFD
TAF
KRFD 270530Z 2706/2806 33010KT 6SM -RA BR SCT005 OVC015
      TEMPO 2706/2708 3SM -RA BR OVC005
     FM270800 30012KT 6SM -SHRA BR OVC008
     FM271000 26018G28KT 6SM -SHRA OVC010
     FM271600 26016G25KT P6SM BKN025
     FM272300 25010KT P6SM BKN035
     FM280400 20005KT P6SM FEW040 BKN150=

USA.gov is the U.S. government's official web portal to all federal, state and local government web resources and services.